sensor_id;sensor_type;location;lat;lon;timestamp;temperature;humidity
13074;DHT22;6603;47.066;15.396;2023-04-25T00:02:23;8.60;99.90
13074;DHT22;6603;47.066;15.396;2023-04-25T00:04:49;8.60;99.90
13074;DHT22;6603;47.066;15.396;2023-04-25T00:07:15;8.50;99.90
13074;DHT22;6603;47.066;15.396;2023-04-25T00:09:42;8.50;99.90
13074;DHT22;6603;47.066;15.396;2023-04-25T00:12:08;8.60;99.90
13074;DHT22;6603;47.066;15.396;2023-04-25T00:14:34;8.60;99.90
13074;DHT22;6603;47.066;15.396;2023-04-25T00:17:01;8.60;99.90
13074;DHT22;6603;47.066;15.396;2023-04-25T00:19:28;8.60;99.90
13074;DHT22;6603;47.066;15.396;2023-04-25T00:21:55;8.60;99.90
13074;DHT22;6603;47.066;15.396;2023-04-25T00:24:21;8.50;99.90
13074;DHT22;6603;47.066;15.396;2023-04-25T00:26:47;8.50;99.90
13074;DHT22;6603;47.066;15.396;2023-04-25T00:29:13;8.40;99.90
13074;DHT22;6603;47.066;15.396;2023-04-25T00:31:39;8.50;99.90
13074;DHT22;6603;47.066;15.396;2023-04-25T00:34:06;8.40;99.90
13074;DHT22;6603;47.066;15.396;2023-04-25T00:36:34;8.40;99.90
13074;DHT22;6603;47.066;15.396;2023-04-25T00:38:59;8.40;99.90
13074;DHT22;6603;47.066;15.396;2023-04-25T00:41:26;8.30;99.90
13074;DHT22;6603;47.066;15.396;2023-04-25T00:43:54;8.30;99.90
13074;DHT22;6603;47.066;15.396;2023-04-25T00:46:21;8.30;99.90
13074;DHT22;6603;47.066;15.396;2023-04-25T00:48:47;8.20;99.90
13074;DHT22;6603;47.066;15.396;2023-04-25T00:51:20;8.20;99.90
13074;DHT22;6603;47.066;15.396;2023-04-25T00:53:51;8.30;99.90
13074;DHT22;6603;47.066;15.396;2023-04-25T00:56:17;8.20;99.90
13074;DHT22;6603;47.066;15.396;2023-04-25T00:58:43;8.20;99.90
13074;DHT22;6603;47.066;15.396;2023-04-25T01:01:10;8.10;99.90
13074;DHT22;6603;47.066;15.396;2023-04-25T01:03:38;8.00;99.90
13074;DHT22;6603;47.066;15.396;2023-04-25T01:06:10;8.10;99.90
13074;DHT22;6603;47.066;15.396;2023-04-25T01:08:38;7.90;99.90
13074;DHT22;6603;47.066;15.396;2023-04-25T01:11:05;8.00;99.90
13074;DHT22;6603;47.066;15.396;2023-04-25T01:13:32;8.00;99.90
13074;DHT22;6603;47.066;15.396;2023-04-25T01:16:00;7.90;99.90
13074;DHT22;6603;47.066;15.396;2023-04-25T01:18:26;8.00;99.90
13074;DHT22;6603;47.066;15.396;2023-04-25T01:20:53;8.10;99.90
13074;DHT22;6603;47.066;15.396;2023-04-25T01:23:22;8.00;99.90
13074;DHT22;6603;47.066;15.396;2023-04-25T01:25:49;8.00;99.90
13074;DHT22;6603;47.066;15.396;2023-04-25T01:28:16;8.10;99.90
13074;DHT22;6603;47.066;15.396;2023-04-25T01:30:43;8.00;99.90
13074;DHT22;6603;47.066;15.396;2023-04-25T01:33:09;8.00;99.90
13074;DHT22;6603;47.066;15.396;2023-04-25T01:35:35;7.90;99.90
13074;DHT22;6603;47.066;15.396;2023-04-25T01:38:01;7.90;99.90
13074;DHT22;6603;47.066;15.396;2023-04-25T01:40:27;7.90;99.90
13074;DHT22;6603;47.066;15.396;2023-04-25T01:42:54;7.90;99.90
13074;DHT22;6603;47.066;15.396;2023-04-25T01:45:20;7.80;99.90
13074;DHT22;6603;47.066;15.396;2023-04-25T01:47:46;7.80;99.90
13074;DHT22;6603;47.066;15.396;2023-04-25T01:50:16;7.80;99.90
13074;DHT22;6603;47.066;15.396;2023-04-25T01:52:42;7.90;99.90
13074;DHT22;6603;47.066;15.396;2023-04-25T01:55:08;7.90;99.90
13074;DHT22;6603;47.066;15.396;2023-04-25T01:57:34;7.80;99.90
13074;DHT22;6603;47.066;15.396;2023-04-25T02:00:04;7.90;99.90
13074;DHT22;6603;47.066;15.396;2023-04-25T02:02:30;7.90;99.90
13074;DHT22;6603;47.066;15.396;2023-04-25T02:04:56;8.00;99.90
13074;DHT22;6603;47.066;15.396;2023-04-25T02:07:22;8.00;99.90
13074;DHT22;6603;47.066;15.396;2023-04-25T02:09:48;8.00;99.90
13074;DHT22;6603;47.066;15.396;2023-04-25T02:12:14;7.90;99.90
13074;DHT22;6603;47.066;15.396;2023-04-25T02:14:40;8.00;99.90
13074;DHT22;6603;47.066;15.396;2023-04-25T02:17:06;7.90;99.90
13074;DHT22;6603;47.066;15.396;2023-04-25T02:19:32;7.80;99.90
13074;DHT22;6603;47.066;15.396;2023-04-25T02:21:58;7.80;99.90
13074;DHT22;6603;47.066;15.396;2023-04-25T02:24:25;7.70;99.90
13074;DHT22;6603;47.066;15.396;2023-04-25T02:26:51;7.60;99.90
13074;DHT22;6603;47.066;15.396;2023-04-25T02:29:18;7.60;99.90
13074;DHT22;6603;47.066;15.396;2023-04-25T02:31:44;7.50;99.90
13074;DHT22;6603;47.066;15.396;2023-04-25T02:34:10;7.40;99.90
13074;DHT22;6603;47.066;15.396;2023-04-25T02:36:36;7.40;99.90
13074;DHT22;6603;47.066;15.396;2023-04-25T02:39:02;7.30;99.90
13074;DHT22;6603;47.066;15.396;2023-04-25T02:43:59;7.20;99.90
13074;DHT22;6603;47.066;15.396;2023-04-25T02:46:25;7.00;99.90
13074;DHT22;6603;47.066;15.396;2023-04-25T02:48:51;7.10;99.90
13074;DHT22;6603;47.066;15.396;2023-04-25T02:51:17;6.90;99.90
13074;DHT22;6603;47.066;15.396;2023-04-25T02:53:44;6.90;99.90
13074;DHT22;6603;47.066;15.396;2023-04-25T02:56:10;6.90;99.90
13074;DHT22;6603;47.066;15.396;2023-04-25T02:58:36;6.80;99.90
13074;DHT22;6603;47.066;15.396;2023-04-25T03:01:02;6.90;99.90
13074;DHT22;6603;47.066;15.396;2023-04-25T03:03:28;6.80;99.90
13074;DHT22;6603;47.066;15.396;2023-04-25T03:05:53;6.60;99.90
13074;DHT22;6603;47.066;15.396;2023-04-25T03:08:19;6.60;99.90
13074;DHT22;6603;47.066;15.396;2023-04-25T03:10:46;6.80;99.90
13074;DHT22;6603;47.066;15.396;2023-04-25T03:13:11;6.70;99.90
13074;DHT22;6603;47.066;15.396;2023-04-25T03:15:38;6.80;99.90
13074;DHT22;6603;47.066;15.396;2023-04-25T03:18:10;6.90;99.90
13074;DHT22;6603;47.066;15.396;2023-04-25T03:20:36;6.80;99.90
13074;DHT22;6603;47.066;15.396;2023-04-25T04:08:58;5.80;99.90
13074;DHT22;6603;47.066;15.396;2023-04-25T04:11:24;5.70;99.90
13074;DHT22;6603;47.066;15.396;2023-04-25T04:13:50;5.70;99.90
13074;DHT22;6603;47.066;15.396;2023-04-25T04:16:16;5.70;99.90
13074;DHT22;6603;47.066;15.396;2023-04-25T04:18:42;5.60;99.90
13074;DHT22;6603;47.066;15.396;2023-04-25T04:21:07;5.60;99.90
13074;DHT22;6603;47.066;15.396;2023-04-25T04:23:33;5.60;99.90
13074;DHT22;6603;47.066;15.396;2023-04-25T04:25:59;5.70;99.90
13074;DHT22;6603;47.066;15.396;2023-04-25T04:28:26;5.50;99.90
13074;DHT22;6603;47.066;15.396;2023-04-25T04:30:52;5.60;99.90
13074;DHT22;6603;47.066;15.396;2023-04-25T04:33:18;5.60;99.90
13074;DHT22;6603;47.066;15.396;2023-04-25T04:35:45;5.60;99.90
13074;DHT22;6603;47.066;15.396;2023-04-25T04:38:13;5.60;99.90
13074;DHT22;6603;47.066;15.396;2023-04-25T04:40:41;5.70;99.90
13074;DHT22;6603;47.066;15.396;2023-04-25T04:43:10;5.70;99.90
13074;DHT22;6603;47.066;15.396;2023-04-25T04:45:37;5.50;99.90
13074;DHT22;6603;47.066;15.396;2023-04-25T04:48:06;5.60;99.90
13074;DHT22;6603;47.066;15.396;2023-04-25T04:50:32;5.80;99.90
13074;DHT22;6603;47.066;15.396;2023-04-25T04:52:58;5.80;99.90
13074;DHT22;6603;47.066;15.396;2023-04-25T04:55:24;5.70;99.90
13074;DHT22;6603;47.066;15.396;2023-04-25T04:57:50;5.80;99.90
13074;DHT22;6603;47.066;15.396;2023-04-25T05:00:17;5.80;99.90
13074;DHT22;6603;47.066;15.396;2023-04-25T05:02:43;5.70;99.90
13074;DHT22;6603;47.066;15.396;2023-04-25T05:05:09;6.00;99.90
13074;DHT22;6603;47.066;15.396;2023-04-25T05:07:35;6.00;99.90
13074;DHT22;6603;47.066;15.396;2023-04-25T05:10:02;6.00;99.90
13074;DHT22;6603;47.066;15.396;2023-04-25T05:12:28;6.00;99.90
13074;DHT22;6603;47.066;15.396;2023-04-25T05:14:53;6.10;99.90
13074;DHT22;6603;47.066;15.396;2023-04-25T05:17:19;6.10;99.90
13074;DHT22;6603;47.066;15.396;2023-04-25T05:19:45;6.20;99.90
13074;DHT22;6603;47.066;15.396;2023-04-25T05:22:11;6.30;99.90
13074;DHT22;6603;47.066;15.396;2023-04-25T05:24:37;6.30;99.90
13074;DHT22;6603;47.066;15.396;2023-04-25T05:27:03;6.50;99.90
13074;DHT22;6603;47.066;15.396;2023-04-25T05:29:28;6.50;99.90
13074;DHT22;6603;47.066;15.396;2023-04-25T05:31:54;6.60;99.90
13074;DHT22;6603;47.066;15.396;2023-04-25T05:34:20;6.80;99.90
13074;DHT22;6603;47.066;15.396;2023-04-25T05:36:45;7.00;99.90
13074;DHT22;6603;47.066;15.396;2023-04-25T05:39:15;7.10;99.90
13074;DHT22;6603;47.066;15.396;2023-04-25T05:41:42;7.20;99.90
13074;DHT22;6603;47.066;15.396;2023-04-25T05:50:40;7.70;99.90
13074;DHT22;6603;47.066;15.396;2023-04-25T05:53:06;7.90;99.90
13074;DHT22;6603;47.066;15.396;2023-04-25T05:55:32;7.90;99.90
13074;DHT22;6603;47.066;15.396;2023-04-25T05:57:58;8.00;99.90
13074;DHT22;6603;47.066;15.396;2023-04-25T06:00:23;8.00;99.90
13074;DHT22;6603;47.066;15.396;2023-04-25T06:02:50;8.20;99.90
13074;DHT22;6603;47.066;15.396;2023-04-25T06:05:16;8.40;99.90
13074;DHT22;6603;47.066;15.396;2023-04-25T06:07:42;8.40;99.90
13074;DHT22;6603;47.066;15.396;2023-04-25T06:10:09;8.50;99.90
13074;DHT22;6603;47.066;15.396;2023-04-25T06:12:35;8.70;99.90
13074;DHT22;6603;47.066;15.396;2023-04-25T06:15:01;8.60;99.90
13074;DHT22;6603;47.066;15.396;2023-04-25T06:17:27;8.70;99.90
13074;DHT22;6603;47.066;15.396;2023-04-25T06:19:53;8.80;99.90
13074;DHT22;6603;47.066;15.396;2023-04-25T06:22:18;8.80;99.90
13074;DHT22;6603;47.066;15.396;2023-04-25T06:24:44;8.80;99.90
13074;DHT22;6603;47.066;15.396;2023-04-25T06:27:11;9.00;99.90
13074;DHT22;6603;47.066;15.396;2023-04-25T06:29:37;9.20;99.90
13074;DHT22;6603;47.066;15.396;2023-04-25T06:32:03;9.30;99.90
13074;DHT22;6603;47.066;15.396;2023-04-25T06:34:29;9.40;99.90
13074;DHT22;6603;47.066;15.396;2023-04-25T06:36:55;9.60;99.90
13074;DHT22;6603;47.066;15.396;2023-04-25T06:39:21;9.60;99.90
13074;DHT22;6603;47.066;15.396;2023-04-25T06:41:49;9.70;92.10
13074;DHT22;6603;47.066;15.396;2023-04-25T06:44:15;9.80;79.30
13074;DHT22;6603;47.066;15.396;2023-04-25T06:46:40;9.90;99.90
13074;DHT22;6603;47.066;15.396;2023-04-25T06:49:06;10.00;99.90
13074;DHT22;6603;47.066;15.396;2023-04-25T06:51:32;10.10;99.90
13074;DHT22;6603;47.066;15.396;2023-04-25T06:53:59;10.10;73.00
13074;DHT22;6603;47.066;15.396;2023-04-25T06:56:25;10.10;93.20
13074;DHT22;6603;47.066;15.396;2023-04-25T06:58:51;10.20;99.90
13074;DHT22;6603;47.066;15.396;2023-04-25T07:01:17;10.30;99.90
13074;DHT22;6603;47.066;15.396;2023-04-25T07:03:44;10.30;96.50
13074;DHT22;6603;47.066;15.396;2023-04-25T07:06:09;10.20;99.90
13074;DHT22;6603;47.066;15.396;2023-04-25T07:08:35;10.40;99.90
13074;DHT22;6603;47.066;15.396;2023-04-25T07:11:01;10.50;99.90
13074;DHT22;6603;47.066;15.396;2023-04-25T07:13:27;10.40;99.90
13074;DHT22;6603;47.066;15.396;2023-04-25T07:15:53;10.60;82.20
13074;DHT22;6603;47.066;15.396;2023-04-25T07:18:19;10.70;99.90
13074;DHT22;6603;47.066;15.396;2023-04-25T07:20:45;10.70;99.90
13074;DHT22;6603;47.066;15.396;2023-04-25T07:23:11;10.70;99.90
13074;DHT22;6603;47.066;15.396;2023-04-25T07:25:37;10.90;95.20
13074;DHT22;6603;47.066;15.396;2023-04-25T07:28:04;11.10;99.90
13074;DHT22;6603;47.066;15.396;2023-04-25T07:30:31;11.40;99.90
13074;DHT22;6603;47.066;15.396;2023-04-25T07:32:57;11.50;66.60
13074;DHT22;6603;47.066;15.396;2023-04-25T07:35:29;11.60;45.30
13074;DHT22;6603;47.066;15.396;2023-04-25T07:37:55;11.70;6.00
13074;DHT22;6603;47.066;15.396;2023-04-25T07:40:21;11.80;1.00
13074;DHT22;6603;47.066;15.396;2023-04-25T07:42:47;11.90;10.00
13074;DHT22;6603;47.066;15.396;2023-04-25T07:45:13;12.20;4.70
13074;DHT22;6603;47.066;15.396;2023-04-25T07:47:39;12.20;1.00
13074;DHT22;6603;47.066;15.396;2023-04-25T07:50:06;12.30;1.00
13074;DHT22;6603;47.066;15.396;2023-04-25T07:52:32;12.50;1.00
13074;DHT22;6603;47.066;15.396;2023-04-25T07:54:59;12.80;1.00
13074;DHT22;6603;47.066;15.396;2023-04-25T07:57:26;13.10;1.00
13074;DHT22;6603;47.066;15.396;2023-04-25T07:59:52;13.30;1.00
13074;DHT22;6603;47.066;15.396;2023-04-25T08:02:18;13.60;99.90
13074;DHT22;6603;47.066;15.396;2023-04-25T08:04:45;13.70;1.00
13074;DHT22;6603;47.066;15.396;2023-04-25T08:07:12;14.00;99.90
13074;DHT22;6603;47.066;15.396;2023-04-25T08:09:38;13.80;1.00
13074;DHT22;6603;47.066;15.396;2023-04-25T08:12:04;14.10;99.90
13074;DHT22;6603;47.066;15.396;2023-04-25T08:14:30;14.20;99.90
13074;DHT22;6603;47.066;15.396;2023-04-25T08:17:02;14.30;1.00
13074;DHT22;6603;47.066;15.396;2023-04-25T08:19:29;14.20;1.00
13074;DHT22;6603;47.066;15.396;2023-04-25T08:21:56;14.00;1.00
13074;DHT22;6603;47.066;15.396;2023-04-25T08:24:23;13.70;1.00
13074;DHT22;6603;47.066;15.396;2023-04-25T08:26:49;13.50;1.00
13074;DHT22;6603;47.066;15.396;2023-04-25T08:29:15;13.50;99.90
13074;DHT22;6603;47.066;15.396;2023-04-25T08:31:41;13.70;1.00
13074;DHT22;6603;47.066;15.396;2023-04-25T08:34:07;13.80;1.00
13074;DHT22;6603;47.066;15.396;2023-04-25T08:36:34;13.70;1.00
13074;DHT22;6603;47.066;15.396;2023-04-25T08:39:00;13.90;99.90
13074;DHT22;6603;47.066;15.396;2023-04-25T08:41:26;14.00;14.30
13074;DHT22;6603;47.066;15.396;2023-04-25T08:43:53;14.00;1.00
13074;DHT22;6603;47.066;15.396;2023-04-25T08:46:22;14.10;1.00
13074;DHT22;6603;47.066;15.396;2023-04-25T08:48:49;14.30;66.80
13074;DHT22;6603;47.066;15.396;2023-04-25T08:51:22;14.30;1.00
13074;DHT22;6603;47.066;15.396;2023-04-25T08:53:54;14.80;99.90
13074;DHT22;6603;47.066;15.396;2023-04-25T08:56:20;14.90;99.90
13074;DHT22;6603;47.066;15.396;2023-04-25T08:58:49;14.90;1.00
13074;DHT22;6603;47.066;15.396;2023-04-25T09:01:18;14.70;1.00
13074;DHT22;6603;47.066;15.396;2023-04-25T09:03:45;14.70;99.90
13074;DHT22;6603;47.066;15.396;2023-04-25T09:06:13;14.70;99.90
13074;DHT22;6603;47.066;15.396;2023-04-25T09:08:39;14.40;99.90
13074;DHT22;6603;47.066;15.396;2023-04-25T09:11:06;14.40;99.90
13074;DHT22;6603;47.066;15.396;2023-04-25T09:13:33;14.50;99.90
13074;DHT22;6603;47.066;15.396;2023-04-25T09:15:59;14.50;99.90
13074;DHT22;6603;47.066;15.396;2023-04-25T09:18:35;14.60;99.90
13074;DHT22;6603;47.066;15.396;2023-04-25T09:21:08;14.70;99.90
13074;DHT22;6603;47.066;15.396;2023-04-25T09:23:46;14.70;99.90
13074;DHT22;6603;47.066;15.396;2023-04-25T09:26:20;14.70;94.20
13074;DHT22;6603;47.066;15.396;2023-04-25T09:29:06;15.00;1.00
13074;DHT22;6603;47.066;15.396;2023-04-25T09:31:33;15.40;1.00
13074;DHT22;6603;47.066;15.396;2023-04-25T09:34:00;15.60;99.90
13074;DHT22;6603;47.066;15.396;2023-04-25T09:36:30;15.60;77.90
13074;DHT22;6603;47.066;15.396;2023-04-25T09:38:57;15.50;1.00
13074;DHT22;6603;47.066;15.396;2023-04-25T09:41:25;15.70;1.00
13074;DHT22;6603;47.066;15.396;2023-04-25T09:43:51;15.80;99.90
13074;DHT22;6603;47.066;15.396;2023-04-25T09:46:17;15.90;25.00
13074;DHT22;6603;47.066;15.396;2023-04-25T09:48:50;16.10;1.00
13074;DHT22;6603;47.066;15.396;2023-04-25T09:51:16;16.20;50.90
13074;DHT22;6603;47.066;15.396;2023-04-25T09:53:45;16.30;44.50
13074;DHT22;6603;47.066;15.396;2023-04-25T09:56:18;16.50;40.70
13074;DHT22;6603;47.066;15.396;2023-04-25T09:58:47;16.80;93.60
13074;DHT22;6603;47.066;15.396;2023-04-25T10:01:14;16.80;1.00
13074;DHT22;6603;47.066;15.396;2023-04-25T10:03:43;16.50;1.00
13074;DHT22;6603;47.066;15.396;2023-04-25T10:06:16;16.30;1.00
13074;DHT22;6603;47.066;15.396;2023-04-25T10:08:44;16.50;1.00
13074;DHT22;6603;47.066;15.396;2023-04-25T10:11:11;16.20;1.00
13074;DHT22;6603;47.066;15.396;2023-04-25T10:13:40;16.30;1.00
13074;DHT22;6603;47.066;15.396;2023-04-25T10:16:07;16.50;1.00
13074;DHT22;6603;47.066;15.396;2023-04-25T10:18:33;16.60;1.00
13074;DHT22;6603;47.066;15.396;2023-04-25T10:21:04;16.90;1.00
13074;DHT22;6603;47.066;15.396;2023-04-25T10:23:31;16.90;1.00
13074;DHT22;6603;47.066;15.396;2023-04-25T10:26:00;17.20;1.00
13074;DHT22;6603;47.066;15.396;2023-04-25T10:28:27;16.70;1.00
13074;DHT22;6603;47.066;15.396;2023-04-25T10:31:03;17.00;1.00
13074;DHT22;6603;47.066;15.396;2023-04-25T10:33:38;17.50;1.00
13074;DHT22;6603;47.066;15.396;2023-04-25T10:36:17;17.90;1.00
13074;DHT22;6603;47.066;15.396;2023-04-25T10:38:44;17.80;1.00
13074;DHT22;6603;47.066;15.396;2023-04-25T10:41:12;17.50;1.00
13074;DHT22;6603;47.066;15.396;2023-04-25T10:43:39;16.80;1.00
13074;DHT22;6603;47.066;15.396;2023-04-25T10:46:25;17.40;1.00
13074;DHT22;6603;47.066;15.396;2023-04-25T10:48:57;17.70;1.00
13074;DHT22;6603;47.066;15.396;2023-04-25T10:51:26;17.30;1.00
13074;DHT22;6603;47.066;15.396;2023-04-25T10:54:05;17.10;1.00
13074;DHT22;6603;47.066;15.396;2023-04-25T10:56:41;17.40;1.00
13074;DHT22;6603;47.066;15.396;2023-04-25T10:59:13;17.50;1.00
13074;DHT22;6603;47.066;15.396;2023-04-25T11:01:47;17.40;1.00
13074;DHT22;6603;47.066;15.396;2023-04-25T11:04:28;17.50;1.00
13074;DHT22;6603;47.066;15.396;2023-04-25T11:06:58;17.70;1.00
13074;DHT22;6603;47.066;15.396;2023-04-25T11:09:26;17.90;1.00
13074;DHT22;6603;47.066;15.396;2023-04-25T11:11:57;17.60;1.00
13074;DHT22;6603;47.066;15.396;2023-04-25T11:14:24;17.70;1.00
13074;DHT22;6603;47.066;15.396;2023-04-25T11:16:57;17.10;1.00
13074;DHT22;6603;47.066;15.396;2023-04-25T11:19:25;16.80;1.00
13074;DHT22;6603;47.066;15.396;2023-04-25T11:21:55;16.60;1.00
13074;DHT22;6603;47.066;15.396;2023-04-25T11:24:35;16.40;1.00
13074;DHT22;6603;47.066;15.396;2023-04-25T11:27:02;16.30;1.00
13074;DHT22;6603;47.066;15.396;2023-04-25T11:29:30;16.10;1.00
13074;DHT22;6603;47.066;15.396;2023-04-25T11:31:57;15.90;1.00
13074;DHT22;6603;47.066;15.396;2023-04-25T11:34:27;15.60;1.00
13074;DHT22;6603;47.066;15.396;2023-04-25T11:36:56;15.60;1.00
13074;DHT22;6603;47.066;15.396;2023-04-25T11:39:24;15.50;1.00
13074;DHT22;6603;47.066;15.396;2023-04-25T11:41:50;15.30;1.00
13074;DHT22;6603;47.066;15.396;2023-04-25T11:44:18;15.10;1.00
13074;DHT22;6603;47.066;15.396;2023-04-25T11:46:45;14.70;1.00
13074;DHT22;6603;47.066;15.396;2023-04-25T11:49:12;14.20;1.00
13074;DHT22;6603;47.066;15.396;2023-04-25T11:51:42;13.90;1.00
13074;DHT22;6603;47.066;15.396;2023-04-25T11:54:09;13.70;1.00
13074;DHT22;6603;47.066;15.396;2023-04-25T11:56:35;13.60;1.00
13074;DHT22;6603;47.066;15.396;2023-04-25T11:59:03;13.60;1.00
13074;DHT22;6603;47.066;15.396;2023-04-25T12:01:35;13.60;1.00
13074;DHT22;6603;47.066;15.396;2023-04-25T12:04:21;13.60;1.00
13074;DHT22;6603;47.066;15.396;2023-04-25T12:06:49;13.60;1.00
13074;DHT22;6603;47.066;15.396;2023-04-25T12:09:19;13.80;1.00
13074;DHT22;6603;47.066;15.396;2023-04-25T12:11:48;14.00;1.00
13074;DHT22;6603;47.066;15.396;2023-04-25T12:14:31;14.30;1.00
13074;DHT22;6603;47.066;15.396;2023-04-25T12:17:00;14.80;1.00
13074;DHT22;6603;47.066;15.396;2023-04-25T12:19:32;15.10;1.00
13074;DHT22;6603;47.066;15.396;2023-04-25T12:22:00;15.30;1.00
13074;DHT22;6603;47.066;15.396;2023-04-25T12:24:27;15.60;1.00
13074;DHT22;6603;47.066;15.396;2023-04-25T12:27:05;15.80;1.00
13074;DHT22;6603;47.066;15.396;2023-04-25T12:29:32;16.10;1.00
13074;DHT22;6603;47.066;15.396;2023-04-25T12:31:59;16.40;1.00
13074;DHT22;6603;47.066;15.396;2023-04-25T12:34:28;16.50;1.00
13074;DHT22;6603;47.066;15.396;2023-04-25T12:36:54;16.70;1.00
13074;DHT22;6603;47.066;15.396;2023-04-25T12:39:23;16.40;1.00
13074;DHT22;6603;47.066;15.396;2023-04-25T12:41:53;16.40;1.00
13074;DHT22;6603;47.066;15.396;2023-04-25T12:44:22;16.70;1.00
13074;DHT22;6603;47.066;15.396;2023-04-25T12:46:48;16.80;1.00
13074;DHT22;6603;47.066;15.396;2023-04-25T12:49:16;16.80;1.00
13074;DHT22;6603;47.066;15.396;2023-04-25T12:51:42;16.70;1.00
13074;DHT22;6603;47.066;15.396;2023-04-25T12:54:08;17.00;1.00
13074;DHT22;6603;47.066;15.396;2023-04-25T12:56:35;17.00;1.00
13074;DHT22;6603;47.066;15.396;2023-04-25T12:59:02;17.20;1.00
13074;DHT22;6603;47.066;15.396;2023-04-25T13:01:31;17.30;1.00
13074;DHT22;6603;47.066;15.396;2023-04-25T13:03:58;17.20;1.00
13074;DHT22;6603;47.066;15.396;2023-04-25T13:06:24;17.20;1.00
13074;DHT22;6603;47.066;15.396;2023-04-25T13:08:51;17.30;1.00
13074;DHT22;6603;47.066;15.396;2023-04-25T13:11:17;17.40;1.00
13074;DHT22;6603;47.066;15.396;2023-04-25T13:13:44;17.50;1.00
13074;DHT22;6603;47.066;15.396;2023-04-25T13:16:10;17.90;1.00
13074;DHT22;6603;47.066;15.396;2023-04-25T13:18:36;17.80;1.00
13074;DHT22;6603;47.066;15.396;2023-04-25T13:21:02;17.80;1.00
13074;DHT22;6603;47.066;15.396;2023-04-25T13:23:29;18.00;1.00
13074;DHT22;6603;47.066;15.396;2023-04-25T13:25:57;18.40;1.00
13074;DHT22;6603;47.066;15.396;2023-04-25T13:28:24;18.20;1.00
13074;DHT22;6603;47.066;15.396;2023-04-25T13:30:50;17.80;1.00
13074;DHT22;6603;47.066;15.396;2023-04-25T13:33:18;17.80;1.00
13074;DHT22;6603;47.066;15.396;2023-04-25T13:35:44;18.00;1.00
13074;DHT22;6603;47.066;15.396;2023-04-25T13:38:23;18.00;1.00
13074;DHT22;6603;47.066;15.396;2023-04-25T13:40:50;17.90;1.00
13074;DHT22;6603;47.066;15.396;2023-04-25T13:43:21;17.50;1.00
13074;DHT22;6603;47.066;15.396;2023-04-25T13:45:50;17.60;1.00
13074;DHT22;6603;47.066;15.396;2023-04-25T13:48:18;17.90;1.00
13074;DHT22;6603;47.066;15.396;2023-04-25T13:50:45;18.10;1.00
13074;DHT22;6603;47.066;15.396;2023-04-25T13:53:11;18.20;1.00
13074;DHT22;6603;47.066;15.396;2023-04-25T13:55:37;18.20;1.00
13074;DHT22;6603;47.066;15.396;2023-04-25T13:58:04;18.10;1.00
13074;DHT22;6603;47.066;15.396;2023-04-25T14:00:36;18.00;1.00
13074;DHT22;6603;47.066;15.396;2023-04-25T14:03:09;17.90;1.00
13074;DHT22;6603;47.066;15.396;2023-04-25T14:05:36;17.70;1.00
13074;DHT22;6603;47.066;15.396;2023-04-25T14:08:09;17.80;1.00
13074;DHT22;6603;47.066;15.396;2023-04-25T14:10:35;17.80;1.00
13074;DHT22;6603;47.066;15.396;2023-04-25T14:13:02;17.70;1.00
13074;DHT22;6603;47.066;15.396;2023-04-25T14:15:32;17.50;1.00
13074;DHT22;6603;47.066;15.396;2023-04-25T14:17:59;16.90;1.00
13074;DHT22;6603;47.066;15.396;2023-04-25T14:20:26;16.90;1.00
13074;DHT22;6603;47.066;15.396;2023-04-25T14:22:52;16.70;1.00
13074;DHT22;6603;47.066;15.396;2023-04-25T14:25:20;16.60;1.00
13074;DHT22;6603;47.066;15.396;2023-04-25T14:27:46;16.30;1.00
13074;DHT22;6603;47.066;15.396;2023-04-25T14:30:16;16.30;1.00
13074;DHT22;6603;47.066;15.396;2023-04-25T14:32:43;16.10;1.00
13074;DHT22;6603;47.066;15.396;2023-04-25T14:35:09;15.90;1.00
13074;DHT22;6603;47.066;15.396;2023-04-25T14:37:35;15.60;1.00
13074;DHT22;6603;47.066;15.396;2023-04-25T14:40:01;15.60;1.00
13074;DHT22;6603;47.066;15.396;2023-04-25T14:42:28;15.50;1.00
13074;DHT22;6603;47.066;15.396;2023-04-25T14:44:54;15.50;1.00
13074;DHT22;6603;47.066;15.396;2023-04-25T14:47:22;15.40;1.00
13074;DHT22;6603;47.066;15.396;2023-04-25T14:49:48;15.30;1.00
13074;DHT22;6603;47.066;15.396;2023-04-25T14:52:22;15.20;1.00
13074;DHT22;6603;47.066;15.396;2023-04-25T14:54:49;15.30;1.00
13074;DHT22;6603;47.066;15.396;2023-04-25T14:57:15;15.40;1.00
13074;DHT22;6603;47.066;15.396;2023-04-25T14:59:42;15.40;1.00
13074;DHT22;6603;47.066;15.396;2023-04-25T15:02:08;15.50;1.00
13074;DHT22;6603;47.066;15.396;2023-04-25T15:04:34;15.70;1.00
13074;DHT22;6603;47.066;15.396;2023-04-25T15:07:00;15.80;1.00
13074;DHT22;6603;47.066;15.396;2023-04-25T15:09:26;15.80;1.00
13074;DHT22;6603;47.066;15.396;2023-04-25T15:11:53;15.50;1.00
13074;DHT22;6603;47.066;15.396;2023-04-25T15:14:18;15.20;1.00
13074;DHT22;6603;47.066;15.396;2023-04-25T15:16:45;15.40;1.00
13074;DHT22;6603;47.066;15.396;2023-04-25T15:19:11;15.60;1.00
13074;DHT22;6603;47.066;15.396;2023-04-25T15:21:37;15.70;1.00
13074;DHT22;6603;47.066;15.396;2023-04-25T15:24:03;15.80;1.00
13074;DHT22;6603;47.066;15.396;2023-04-25T15:26:29;15.70;1.00
13074;DHT22;6603;47.066;15.396;2023-04-25T15:28:55;16.30;1.00
13074;DHT22;6603;47.066;15.396;2023-04-25T15:31:22;16.30;1.00
13074;DHT22;6603;47.066;15.396;2023-04-25T15:33:49;16.20;1.00
13074;DHT22;6603;47.066;15.396;2023-04-25T15:36:15;16.00;1.00
13074;DHT22;6603;47.066;15.396;2023-04-25T15:38:43;15.80;1.00
13074;DHT22;6603;47.066;15.396;2023-04-25T15:41:09;15.50;1.00
13074;DHT22;6603;47.066;15.396;2023-04-25T15:43:36;15.50;1.00
13074;DHT22;6603;47.066;15.396;2023-04-25T15:46:04;15.50;1.00
13074;DHT22;6603;47.066;15.396;2023-04-25T15:48:31;15.60;1.00
13074;DHT22;6603;47.066;15.396;2023-04-25T15:50:58;15.20;1.00
13074;DHT22;6603;47.066;15.396;2023-04-25T15:53:24;15.10;1.00
13074;DHT22;6603;47.066;15.396;2023-04-25T15:55:50;15.00;1.00
13074;DHT22;6603;47.066;15.396;2023-04-25T15:58:17;15.10;1.00
13074;DHT22;6603;47.066;15.396;2023-04-25T16:00:46;15.20;1.00
13074;DHT22;6603;47.066;15.396;2023-04-25T16:03:13;16.00;1.00
13074;DHT22;6603;47.066;15.396;2023-04-25T16:05:39;16.50;1.00
13074;DHT22;6603;47.066;15.396;2023-04-25T16:08:06;17.30;1.00
13074;DHT22;6603;47.066;15.396;2023-04-25T16:10:32;17.60;1.00
13074;DHT22;6603;47.066;15.396;2023-04-25T16:12:59;18.30;1.00
13074;DHT22;6603;47.066;15.396;2023-04-25T16:15:25;18.90;1.00
13074;DHT22;6603;47.066;15.396;2023-04-25T16:17:51;19.10;1.00
13074;DHT22;6603;47.066;15.396;2023-04-25T16:20:17;19.00;1.00
13074;DHT22;6603;47.066;15.396;2023-04-25T16:22:43;19.10;1.00
13074;DHT22;6603;47.066;15.396;2023-04-25T16:25:10;19.10;1.00
13074;DHT22;6603;47.066;15.396;2023-04-25T16:27:37;19.80;1.00
13074;DHT22;6603;47.066;15.396;2023-04-25T16:30:07;20.40;1.00
13074;DHT22;6603;47.066;15.396;2023-04-25T16:32:34;20.80;1.00
13074;DHT22;6603;47.066;15.396;2023-04-25T16:35:01;21.90;1.00
13074;DHT22;6603;47.066;15.396;2023-04-25T16:37:27;22.00;1.00
13074;DHT22;6603;47.066;15.396;2023-04-25T16:39:53;22.10;1.00
13074;DHT22;6603;47.066;15.396;2023-04-25T16:42:19;22.20;1.00